createdAt,value
2018-11-27T00:00:37.930Z,89.20
2018-11-27T00:01:37.944Z,89.11
2018-11-27T00:03:31.090Z,89.11
2018-11-27T00:04:31.097Z,89.20
2018-11-27T00:06:23.287Z,88.92
2018-11-27T00:07:23.291Z,88.92
2018-11-27T00:09:16.442Z,88.92
2018-11-27T00:10:16.433Z,89.01
2018-11-27T00:12:09.581Z,89.20
2018-11-27T00:13:09.578Z,89.01
2018-11-27T00:15:02.722Z,88.73
2018-11-27T00:16:02.727Z,88.92
2018-11-27T00:17:55.880Z,88.54
2018-11-27T00:18:55.914Z,88.92
2018-11-27T00:20:49.034Z,89.20
2018-11-27T00:21:49.044Z,88.26
2018-11-27T00:23:42.159Z,89.20
2018-11-27T00:24:42.180Z,89.11
2018-11-27T00:26:34.346Z,89.20
2018-11-27T00:27:34.338Z,89.11
2018-11-27T00:29:27.503Z,88.73
2018-11-27T00:30:27.513Z,88.26
2018-11-27T00:32:20.652Z,88.54
2018-11-27T00:33:20.658Z,88.64
2018-11-27T00:35:13.810Z,88.64
2018-11-27T00:36:13.815Z,88.35
2018-11-27T00:38:05.963Z,88.07
2018-11-27T00:39:05.957Z,88.54
2018-11-27T00:40:59.118Z,88.07
2018-11-27T00:41:59.125Z,88.73
2018-11-27T00:44:06.095Z,88.54
2018-11-27T00:45:05.694Z,89.30
2018-11-27T00:46:58.807Z,88.54
2018-11-27T00:47:58.790Z,88.26
2018-11-27T00:49:51.960Z,88.64
2018-11-27T00:50:51.951Z,89.20
2018-11-27T00:52:45.162Z,88.31
2018-11-27T00:53:45.107Z,88.45
2018-11-27T00:55:38.309Z,87.98
2018-11-27T00:56:38.280Z,88.35
2018-11-27T00:58:31.441Z,88.64
2018-11-27T00:59:31.426Z,87.98
2018-11-27T01:01:24.582Z,88.54
2018-11-27T01:02:24.574Z,88.54
2018-11-27T01:04:17.731Z,88.64
2018-11-27T01:05:17.737Z,87.98
2018-11-27T01:07:10.917Z,88.64
2018-11-27T01:08:10.917Z,88.73
2018-11-27T01:10:03.043Z,88.45
2018-11-27T01:11:03.063Z,88.54
2018-11-27T01:12:56.209Z,87.84
2018-11-27T01:13:56.203Z,87.93
2018-11-27T01:15:48.347Z,88.31
2018-11-27T01:16:48.353Z,88.31
2018-11-27T01:18:53.211Z,88.21
2018-11-27T01:19:53.228Z,88.87
2018-11-27T01:21:46.348Z,88.40
2018-11-27T01:22:46.354Z,88.31
2018-11-27T01:24:39.525Z,88.31
2018-11-27T01:25:39.517Z,88.31
2018-11-27T01:27:32.668Z,88.02
2018-11-27T01:28:32.688Z,88.40
2018-11-27T01:30:24.834Z,87.74
2018-11-27T01:31:24.828Z,88.12
2018-11-27T01:33:17.982Z,87.74
2018-11-27T01:34:17.996Z,87.93
2018-11-27T01:36:11.482Z,88.02
2018-11-27T01:37:11.156Z,88.02
2018-11-27T01:39:04.616Z,88.12
2018-11-27T01:40:04.299Z,88.40
2018-11-27T01:41:57.456Z,88.87
2018-11-27T01:42:57.439Z,88.12
2018-11-27T01:44:50.586Z,88.59
2018-11-27T01:45:50.577Z,88.31
2018-11-27T01:47:43.749Z,88.31
2018-11-27T01:48:43.743Z,87.93
2018-11-27T01:50:36.901Z,88.59
2018-11-27T01:51:36.902Z,88.78
2018-11-27T01:53:29.081Z,88.59
2018-11-27T01:54:29.079Z,88.68
2018-11-27T01:56:21.248Z,88.40
2018-11-27T01:57:21.244Z,88.21
2018-11-27T01:59:13.429Z,87.93
2018-11-27T02:00:13.458Z,87.93
2018-11-27T02:02:06.607Z,88.21
2018-11-27T02:03:06.597Z,88.59
2018-11-27T02:04:59.770Z,88.87
2018-11-27T02:05:59.766Z,88.40
2018-11-27T02:07:52.928Z,88.21
2018-11-27T02:08:52.955Z,88.49
2018-11-27T02:10:46.086Z,88.40
2018-11-27T02:11:46.099Z,87.84
2018-11-27T02:13:39.225Z,88.59
2018-11-27T02:14:39.246Z,88.68
2018-11-27T02:16:32.411Z,88.49
2018-11-27T02:17:32.411Z,88.49
2018-11-27T02:19:25.585Z,88.12
2018-11-27T02:20:25.575Z,88.31
2018-11-27T02:22:18.719Z,88.12
2018-11-27T02:23:18.726Z,88.21
2018-11-27T02:25:10.901Z,88.40
2018-11-27T02:26:10.902Z,89.06
2018-11-27T02:28:04.036Z,89.25
2018-11-27T02:29:04.045Z,89.16
2018-11-27T02:30:57.192Z,89.16
2018-11-27T02:31:57.187Z,89.16
2018-11-27T02:33:50.341Z,89.25
2018-11-27T02:34:50.339Z,89.06
2018-11-27T02:36:43.505Z,88.21
2018-11-27T02:37:43.505Z,88.59
2018-11-27T02:39:36.632Z,88.49
2018-11-27T02:40:36.643Z,89.16
2018-11-27T02:42:29.818Z,89.06
2018-11-27T02:43:29.805Z,88.21
2018-11-27T02:45:22.951Z,89.16
2018-11-27T02:46:22.950Z,89.16
2018-11-27T02:48:30.419Z,89.06
2018-11-27T02:49:30.424Z,88.97
2018-11-27T02:51:23.574Z,89.16
2018-11-27T02:52:23.571Z,89.16
2018-11-27T02:54:16.737Z,88.87
2018-11-27T02:55:16.728Z,89.06
2018-11-27T02:57:09.906Z,88.97
2018-11-27T02:58:09.894Z,89.06
2018-11-27T03:00:03.381Z,88.68
2018-11-27T03:01:03.063Z,88.97
2018-11-27T03:02:56.223Z,88.78
2018-11-27T03:03:56.210Z,89.06
2018-11-27T03:05:49.361Z,88.97
2018-11-27T03:06:49.363Z,89.06
2018-11-27T03:08:42.539Z,89.25
2018-11-27T03:09:42.549Z,88.68
2018-11-27T03:11:35.682Z,89.16
2018-11-27T03:12:35.691Z,89.06
2018-11-27T03:14:28.819Z,88.97
2018-11-27T03:15:28.875Z,89.06
2018-11-27T03:17:22.007Z,88.78
2018-11-27T03:18:22.000Z,89.16
2018-11-27T03:20:32.501Z,89.16
2018-11-27T03:21:32.501Z,89.06
2018-11-27T03:23:39.949Z,89.06
2018-11-27T03:24:39.954Z,89.06
2018-11-27T03:26:33.096Z,88.78
2018-11-27T03:27:33.087Z,88.97
2018-11-27T03:29:26.226Z,89.16
2018-11-27T03:30:26.241Z,88.78
2018-11-27T03:32:19.393Z,88.59
2018-11-27T03:33:19.400Z,88.97
2018-11-27T03:35:26.094Z,89.16
2018-11-27T03:36:26.038Z,88.87
2018-11-27T03:38:19.192Z,88.59
2018-11-27T03:39:19.207Z,89.06
2018-11-27T03:41:12.363Z,89.16
2018-11-27T03:42:12.350Z,89.35
2018-11-27T03:44:05.508Z,88.97
2018-11-27T03:45:05.511Z,89.06
2018-11-27T03:46:58.653Z,89.25
2018-11-27T03:47:58.667Z,88.68
2018-11-27T03:49:51.805Z,88.97
2018-11-27T03:50:51.815Z,88.59
2018-11-27T03:52:44.986Z,89.25
2018-11-27T03:53:44.974Z,89.16
2018-11-27T03:55:38.124Z,89.25
2018-11-27T03:56:38.128Z,88.87
2018-11-27T03:58:31.317Z,89.06
2018-11-27T03:59:31.306Z,89.16
2018-11-27T04:01:24.469Z,89.16
2018-11-27T04:02:24.474Z,89.16
2018-11-27T04:04:17.612Z,89.25
2018-11-27T04:05:17.637Z,88.40
2018-11-27T04:07:09.813Z,88.59
2018-11-27T04:08:09.821Z,89.06
2018-11-27T04:10:02.960Z,88.21
2018-11-27T04:11:02.980Z,88.49
2018-11-27T04:12:55.181Z,89.02
2018-11-27T04:13:55.157Z,89.06
2018-11-27T04:15:48.304Z,88.87
2018-11-27T04:16:48.318Z,88.97
2018-11-27T04:18:41.476Z,89.02
2018-11-27T04:19:41.472Z,89.16
2018-11-27T04:21:34.632Z,88.78
2018-11-27T04:22:34.636Z,89.25
2018-11-27T04:24:27.797Z,88.21
2018-11-27T04:25:27.803Z,88.21
2018-11-27T04:27:20.970Z,88.40
2018-11-27T04:28:20.952Z,88.31
2018-11-27T04:30:14.100Z,88.40
2018-11-27T04:31:14.113Z,88.36
2018-11-27T04:33:07.273Z,88.17
2018-11-27T04:34:07.281Z,88.64
2018-11-27T04:36:00.409Z,89.02
2018-11-27T04:37:00.428Z,89.21
2018-11-27T04:38:53.567Z,88.40
2018-11-27T04:39:53.570Z,88.36
2018-11-27T04:41:46.696Z,88.49
2018-11-27T04:42:46.711Z,88.31
2018-11-27T04:44:39.889Z,88.55
2018-11-27T04:45:39.876Z,88.36
2018-11-27T04:47:33.040Z,87.79
2018-11-27T04:48:33.041Z,88.36
2018-11-27T04:50:42.510Z,88.40
2018-11-27T04:51:42.531Z,88.55
2018-11-27T04:53:35.693Z,88.31
2018-11-27T04:54:35.687Z,88.45
2018-11-27T04:56:28.831Z,88.36
2018-11-27T04:57:28.857Z,88.17
2018-11-27T04:59:22.015Z,88.36
2018-11-27T05:00:22.014Z,88.26
2018-11-27T05:02:15.165Z,88.74
2018-11-27T05:03:15.133Z,88.74
2018-11-27T05:05:08.295Z,88.26
2018-11-27T05:06:08.287Z,88.45
2018-11-27T05:08:01.449Z,88.26
2018-11-27T05:09:01.438Z,88.26
2018-11-27T05:10:54.597Z,88.36
2018-11-27T05:11:54.605Z,88.55
2018-11-27T05:13:47.773Z,88.26
2018-11-27T05:14:47.769Z,88.36
2018-11-27T05:16:40.901Z,88.45
2018-11-27T05:17:40.908Z,88.45
2018-11-27T05:19:47.414Z,88.36
2018-11-27T05:20:47.410Z,88.36
2018-11-27T05:22:40.592Z,88.36
2018-11-27T05:23:40.562Z,88.36
2018-11-27T05:25:33.791Z,88.36
2018-11-27T05:26:33.723Z,88.26
2018-11-27T05:28:43.224Z,88.45
2018-11-27T05:29:43.215Z,88.26
2018-11-27T05:31:36.363Z,87.88
2018-11-27T05:32:36.366Z,88.64
2018-11-27T05:34:29.541Z,88.55
2018-11-27T05:35:29.516Z,88.17
2018-11-27T05:37:22.669Z,88.26
2018-11-27T05:38:22.685Z,88.17
2018-11-27T05:40:15.818Z,88.36
2018-11-27T05:41:15.817Z,88.36
2018-11-27T05:43:08.979Z,87.88
2018-11-27T05:44:08.977Z,88.26
2018-11-27T05:46:02.114Z,88.36
2018-11-27T05:47:02.115Z,88.07
2018-11-27T05:48:55.372Z,87.88
2018-11-27T05:49:55.279Z,88.83
2018-11-27T05:51:48.421Z,87.88
2018-11-27T05:52:48.427Z,88.26
2018-11-27T05:54:41.610Z,87.98
2018-11-27T05:55:41.617Z,88.74
2018-11-27T05:57:34.762Z,88.64
2018-11-27T05:58:34.776Z,88.55
2018-11-27T06:00:27.930Z,88.55
2018-11-27T06:01:27.932Z,88.64
2018-11-27T06:03:21.096Z,88.36
2018-11-27T06:04:21.094Z,88.36
2018-11-27T06:06:30.592Z,88.36
2018-11-27T06:07:30.560Z,88.36
2018-11-27T06:09:23.692Z,88.26
2018-11-27T06:10:23.696Z,87.79
2018-11-27T06:12:16.827Z,88.64
2018-11-27T06:13:16.834Z,87.79
2018-11-27T06:15:10.013Z,88.45
2018-11-27T06:16:09.995Z,88.45
2018-11-27T06:18:03.150Z,88.17
2018-11-27T06:19:03.145Z,88.55
2018-11-27T06:20:56.299Z,88.55
2018-11-27T06:21:56.299Z,88.17
2018-11-27T06:23:49.445Z,88.36
2018-11-27T06:24:49.441Z,88.36
2018-11-27T06:26:42.614Z,88.17
2018-11-27T06:27:42.607Z,88.07
2018-11-27T06:29:35.774Z,87.70
2018-11-27T06:30:35.752Z,87.79
2018-11-27T06:32:28.956Z,87.88
2018-11-27T06:33:28.998Z,87.88
2018-11-27T06:35:22.136Z,88.26
2018-11-27T06:36:22.138Z,88.26
2018-11-27T06:38:15.299Z,87.32
2018-11-27T06:39:15.306Z,87.23
2018-11-27T06:41:08.452Z,87.60
2018-11-27T06:42:08.433Z,87.41
2018-11-27T06:44:01.601Z,87.70
2018-11-27T06:45:01.579Z,87.41
2018-11-27T06:46:54.789Z,87.79
2018-11-27T06:47:54.733Z,88.17
2018-11-27T06:49:47.869Z,87.41
2018-11-27T06:50:47.887Z,87.23
2018-11-27T06:52:41.045Z,86.85
2018-11-27T06:53:41.044Z,86.94
2018-11-27T06:55:34.219Z,87.13
2018-11-27T06:56:34.199Z,87.13
2018-11-27T06:58:27.333Z,87.23
2018-11-27T06:59:27.338Z,87.13
2018-11-27T07:01:20.510Z,87.23
2018-11-27T07:02:20.504Z,86.75
2018-11-27T07:04:13.647Z,87.32
2018-11-27T07:05:13.662Z,87.32
2018-11-27T07:07:06.802Z,87.04
2018-11-27T07:08:06.810Z,86.85
2018-11-27T07:10:00.302Z,86.85
2018-11-27T07:10:59.971Z,86.85
2018-11-27T07:12:53.128Z,86.75
2018-11-27T07:13:53.141Z,86.85
2018-11-27T07:15:46.290Z,87.13
2018-11-27T07:16:46.294Z,86.94
2018-11-27T07:18:39.442Z,87.08
2018-11-27T07:19:39.444Z,86.89
2018-11-27T07:21:32.603Z,86.94
2018-11-27T07:22:32.609Z,87.13
2018-11-27T07:24:25.741Z,86.85
2018-11-27T07:25:25.747Z,86.37
2018-11-27T07:27:36.234Z,86.75
2018-11-27T07:28:36.236Z,87.51
2018-11-27T07:30:29.433Z,88.26
2018-11-27T07:31:29.434Z,88.74
2018-11-27T07:33:22.610Z,88.36
2018-11-27T07:34:22.599Z,88.45
2018-11-27T07:36:28.136Z,87.88
2018-11-27T07:37:28.122Z,87.98
2018-11-27T07:39:20.359Z,88.55
2018-11-27T07:40:20.350Z,87.98
2018-11-27T07:42:12.491Z,87.70
2018-11-27T07:43:12.488Z,87.79
2018-11-27T07:45:04.664Z,88.36
2018-11-27T07:46:04.655Z,87.88
2018-11-27T07:48:13.270Z,87.79
2018-11-27T07:49:13.275Z,88.17
2018-11-27T07:51:06.444Z,88.07
2018-11-27T07:52:06.439Z,87.79
2018-11-27T07:53:59.599Z,87.79
2018-11-27T07:54:59.603Z,88.17
2018-11-27T07:56:52.853Z,88.55
2018-11-27T07:57:52.859Z,88.64
2018-11-27T07:59:46.005Z,88.17
2018-11-27T08:00:46.019Z,87.41
2018-11-27T08:02:39.165Z,87.70
2018-11-27T08:03:39.161Z,88.07
2018-11-27T08:05:47.648Z,87.23
2018-11-27T08:06:47.647Z,87.41
2018-11-27T08:08:40.858Z,87.32
2018-11-27T08:09:40.859Z,87.70
2018-11-27T08:11:33.999Z,87.32
2018-11-27T08:12:34.004Z,88.17
2018-11-27T08:14:27.130Z,87.51
2018-11-27T08:15:27.145Z,87.41
2018-11-27T08:17:20.324Z,87.04
2018-11-27T08:18:20.624Z,87.23
2018-11-27T08:20:13.467Z,87.27
2018-11-27T08:21:13.482Z,87.27
2018-11-27T08:23:06.626Z,86.32
2018-11-27T08:24:06.616Z,86.70
2018-11-27T08:25:59.808Z,86.70
2018-11-27T08:26:59.809Z,86.32
2018-11-27T08:29:06.600Z,86.13
2018-11-27T08:30:06.611Z,86.41
2018-11-27T08:31:59.888Z,85.75
2018-11-27T08:32:59.875Z,85.85
2018-11-27T08:34:53.027Z,85.47
2018-11-27T08:35:53.048Z,85.19
2018-11-27T08:37:46.203Z,85.00
2018-11-27T08:38:46.202Z,84.90
2018-11-27T08:40:39.354Z,84.90
2018-11-27T08:41:40.539Z,84.61
2018-11-27T08:43:32.530Z,84.81
2018-11-27T08:44:32.518Z,84.52
2018-11-27T08:46:24.748Z,84.90
2018-11-27T08:47:24.716Z,84.81
2018-11-27T08:49:17.848Z,84.61
2018-11-27T08:50:17.853Z,84.81
2018-11-27T08:52:10.978Z,84.52
2018-11-27T08:53:10.986Z,84.33
2018-11-27T08:55:04.103Z,84.52
2018-11-27T08:56:04.118Z,84.81
2018-11-27T08:57:57.370Z,84.90
2018-11-27T08:58:57.366Z,83.95
2018-11-27T09:00:50.548Z,83.95
2018-11-27T09:01:50.555Z,84.14
2018-11-27T09:03:46.499Z,83.90
2018-11-27T09:04:43.697Z,83.48
2018-11-27T09:06:36.833Z,83.67
2018-11-27T09:07:36.849Z,84.00
2018-11-27T09:09:30.027Z,82.53
2018-11-27T09:10:30.005Z,82.67
2018-11-27T09:12:23.164Z,82.39
2018-11-27T09:13:23.146Z,82.39
2018-11-27T09:15:16.325Z,82.48
2018-11-27T09:16:16.321Z,82.48
2018-11-27T09:18:09.484Z,82.10
2018-11-27T09:19:09.503Z,82.95
2018-11-27T09:21:02.614Z,82.76
2018-11-27T09:22:02.630Z,83.33
2018-11-27T09:23:55.749Z,82.82
2018-11-27T09:24:55.752Z,82.57
2018-11-27T09:26:48.899Z,82.76
2018-11-27T09:27:48.907Z,82.67
2018-11-27T09:29:42.039Z,82.86
2018-11-27T09:30:42.035Z,82.29
2018-11-27T09:32:35.221Z,82.67
2018-11-27T09:33:35.221Z,82.20
2018-11-27T09:35:28.383Z,82.29
2018-11-27T09:36:28.407Z,82.48
2018-11-27T09:38:36.163Z,82.01
2018-11-27T09:39:36.131Z,82.57
2018-11-27T09:41:29.275Z,82.48
2018-11-27T09:42:29.285Z,82.57
2018-11-27T09:44:22.442Z,82.29
2018-11-27T09:45:22.441Z,82.48
2018-11-27T09:47:15.592Z,82.67
2018-11-27T09:48:15.601Z,82.01
2018-11-27T09:50:08.768Z,81.72
2018-11-27T09:51:08.754Z,81.53
2018-11-27T09:53:01.917Z,81.72
2018-11-27T09:54:01.915Z,81.15
2018-11-27T09:55:55.071Z,80.87
2018-11-27T09:56:55.070Z,81.72
2018-11-27T09:58:48.225Z,81.06
2018-11-27T09:59:48.235Z,81.15
2018-11-27T10:01:41.386Z,81.63
2018-11-27T10:02:41.374Z,81.82
2018-11-27T10:04:34.527Z,80.87
2018-11-27T10:05:34.522Z,81.15
2018-11-27T10:07:27.907Z,81.15
2018-11-27T10:08:27.686Z,80.77
2018-11-27T10:10:20.855Z,80.96
2018-11-27T10:11:20.834Z,81.15
2018-11-27T10:13:13.988Z,80.87
2018-11-27T10:14:13.995Z,81.25
2018-11-27T10:16:07.191Z,81.44
2018-11-27T10:17:07.184Z,80.68
2018-11-27T10:19:00.303Z,80.58
2018-11-27T10:20:00.313Z,80.40
2018-11-27T10:21:53.487Z,80.58
2018-11-27T10:22:53.475Z,80.77
2018-11-27T10:24:46.621Z,80.68
2018-11-27T10:25:46.649Z,81.25
2018-11-27T10:27:39.839Z,80.96
2018-11-27T10:28:39.791Z,81.34
2018-11-27T10:30:32.956Z,81.15
2018-11-27T10:31:32.951Z,80.68
2018-11-27T10:33:26.106Z,81.06
2018-11-27T10:34:26.188Z,80.87
2018-11-27T10:36:19.274Z,80.21
2018-11-27T10:37:19.274Z,81.15
2018-11-27T10:39:12.419Z,80.58
2018-11-27T10:40:12.430Z,79.74
2018-11-27T10:42:05.582Z,80.58
2018-11-27T10:43:05.583Z,80.87
2018-11-27T10:44:58.735Z,80.58
2018-11-27T10:45:58.763Z,80.58
2018-11-27T10:47:51.899Z,80.58
2018-11-27T10:48:51.903Z,80.02
2018-11-27T10:50:45.058Z,79.64
2018-11-27T10:51:45.076Z,79.93
2018-11-27T10:53:38.233Z,79.74
2018-11-27T10:54:38.234Z,79.93
2018-11-27T10:56:31.405Z,80.02
2018-11-27T10:57:31.476Z,79.74
2018-11-27T10:59:24.551Z,79.45
2018-11-27T11:00:24.555Z,79.83
2018-11-27T11:02:17.700Z,79.93
2018-11-27T11:03:17.708Z,79.83
2018-11-27T11:05:10.852Z,80.02
2018-11-27T11:06:10.848Z,79.64
2018-11-27T11:08:04.008Z,79.74
2018-11-27T11:09:04.010Z,79.83
2018-11-27T11:11:13.502Z,79.36
2018-11-27T11:12:13.495Z,79.36
2018-11-27T11:14:06.657Z,79.07
2018-11-27T11:15:06.661Z,79.07
2018-11-27T11:16:59.886Z,79.26
2018-11-27T11:17:59.831Z,79.83
2018-11-27T11:19:52.989Z,79.17
2018-11-27T11:20:52.987Z,79.83
2018-11-27T11:22:46.129Z,79.26
2018-11-27T11:23:46.158Z,79.11
2018-11-27T11:25:39.271Z,79.17
2018-11-27T11:26:39.276Z,79.77
2018-11-27T11:28:32.429Z,79.30
2018-11-27T11:29:32.430Z,79.02
2018-11-27T11:31:25.585Z,79.58
2018-11-27T11:32:25.591Z,78.92
2018-11-27T11:34:18.736Z,79.77
2018-11-27T11:35:18.755Z,78.83
2018-11-27T11:37:11.895Z,79.49
2018-11-27T11:38:11.881Z,78.83
2018-11-27T11:40:05.010Z,79.02
2018-11-27T11:41:05.023Z,79.30
2018-11-27T11:42:58.202Z,78.73
2018-11-27T11:43:58.264Z,79.02
2018-11-27T11:45:52.003Z,79.21
2018-11-27T11:46:51.342Z,78.79
2018-11-27T11:48:44.516Z,78.54
2018-11-27T11:49:44.513Z,79.21
2018-11-27T11:51:37.678Z,78.26
2018-11-27T11:52:37.666Z,78.35
2018-11-27T11:54:30.883Z,77.78
2018-11-27T11:55:30.829Z,77.97
2018-11-27T11:57:23.989Z,79.21
2018-11-27T11:58:23.983Z,78.35
2018-11-27T12:00:17.153Z,78.92
2018-11-27T12:01:17.148Z,78.73
2018-11-27T12:03:10.289Z,78.35
2018-11-27T12:04:10.303Z,78.64
2018-11-27T12:06:03.483Z,78.26
2018-11-27T12:07:03.469Z,77.88
2018-11-27T12:08:56.618Z,78.64
2018-11-27T12:09:56.638Z,78.26
2018-11-27T12:11:49.800Z,79.30
2018-11-27T12:12:49.789Z,79.96
2018-11-27T12:14:42.932Z,80.25
2018-11-27T12:15:42.946Z,80.25
2018-11-27T12:17:36.116Z,81.29
2018-11-27T12:18:36.114Z,81.29
2018-11-27T12:20:29.422Z,80.63
2018-11-27T12:21:29.275Z,80.53
2018-11-27T12:23:22.447Z,80.82
2018-11-27T12:24:22.444Z,80.63
2018-11-27T12:26:15.579Z,81.20
2018-11-27T12:27:15.598Z,81.20
2018-11-27T12:29:09.096Z,81.38
2018-11-27T12:30:08.768Z,81.10
2018-11-27T12:32:01.905Z,81.48
2018-11-27T12:33:01.911Z,81.38
2018-11-27T12:34:55.085Z,81.48
2018-11-27T12:35:55.073Z,81.20
2018-11-27T12:37:48.240Z,80.82
2018-11-27T12:38:48.232Z,80.82
2018-11-27T12:40:41.405Z,81.01
2018-11-27T12:41:41.397Z,81.38
2018-11-27T12:43:34.554Z,81.10
2018-11-27T12:44:34.579Z,81.20
2018-11-27T12:46:27.728Z,81.38
2018-11-27T12:47:27.741Z,80.82
2018-11-27T12:49:19.876Z,81.20
2018-11-27T12:50:19.877Z,80.44
2018-11-27T12:52:13.066Z,80.44
2018-11-27T12:53:16.733Z,81.01
2018-11-27T12:55:06.192Z,80.15
2018-11-27T12:56:06.186Z,80.63
2018-11-27T12:57:59.360Z,80.72
2018-11-27T12:58:59.350Z,80.72
2018-11-27T13:00:52.547Z,80.53
2018-11-27T13:01:52.528Z,80.63
2018-11-27T13:03:45.707Z,80.15
2018-11-27T13:04:45.677Z,80.25
2018-11-27T13:06:38.827Z,80.15
2018-11-27T13:07:38.824Z,80.53
2018-11-27T13:09:31.993Z,80.15
2018-11-27T13:10:31.995Z,80.72
2018-11-27T13:12:25.132Z,80.53
2018-11-27T13:13:25.150Z,80.82
2018-11-27T13:15:18.306Z,80.34
2018-11-27T13:16:18.323Z,80.34
2018-11-27T13:18:11.595Z,80.63
2018-11-27T13:19:11.620Z,79.96
2018-11-27T13:21:21.127Z,79.77
2018-11-27T13:22:21.118Z,79.77
2018-11-27T13:24:14.273Z,80.06
2018-11-27T13:25:14.274Z,79.77
2018-11-27T13:27:07.414Z,79.39
2018-11-27T13:28:07.430Z,79.87
2018-11-27T13:30:00.609Z,79.77
2018-11-27T13:31:00.592Z,80.06
2018-11-27T13:32:53.737Z,80.25
2018-11-27T13:33:53.751Z,79.77
2018-11-27T13:35:46.934Z,79.30
2018-11-27T13:36:46.915Z,79.21
2018-11-27T13:38:40.071Z,79.21
2018-11-27T13:39:40.085Z,79.11
2018-11-27T13:41:33.249Z,78.73
2018-11-27T13:42:33.245Z,77.88
2018-11-27T13:44:26.394Z,78.16
2018-11-27T13:45:26.406Z,78.16
2018-11-27T13:47:19.536Z,77.69
2018-11-27T13:48:19.551Z,78.07
2018-11-27T13:50:12.770Z,77.69
2018-11-27T13:51:12.739Z,77.50
2018-11-27T13:53:06.852Z,77.40
2018-11-27T13:54:05.897Z,77.59
2018-11-27T13:55:59.050Z,77.22
2018-11-27T13:56:59.056Z,77.03
2018-11-27T13:58:52.270Z,77.12
2018-11-27T13:59:52.282Z,76.36
2018-11-27T14:01:46.355Z,76.55
2018-11-27T14:02:45.363Z,76.55
2018-11-27T14:04:38.541Z,76.84
2018-11-27T14:05:38.530Z,76.84
2018-11-27T14:07:31.698Z,77.03
2018-11-27T14:08:31.731Z,77.40
2018-11-27T14:10:24.890Z,77.69
2018-11-27T14:11:24.950Z,77.97
2018-11-27T14:13:18.041Z,77.97
2018-11-27T14:14:18.103Z,77.97
2018-11-27T14:16:11.230Z,78.73
2018-11-27T14:17:11.235Z,79.21
2018-11-27T14:19:04.766Z,79.58
2018-11-27T14:20:04.412Z,79.87
2018-11-27T14:21:57.556Z,79.77
2018-11-27T14:22:57.666Z,79.77
2018-11-27T14:25:04.187Z,79.68
2018-11-27T14:26:04.168Z,80.15
2018-11-27T14:27:57.308Z,80.34
2018-11-27T14:28:57.315Z,80.44
2018-11-27T14:30:50.511Z,80.06
2018-11-27T14:31:50.488Z,80.72
2018-11-27T14:33:43.646Z,80.06
2018-11-27T14:34:43.660Z,80.53
2018-11-27T14:36:36.794Z,80.34
2018-11-27T14:37:36.796Z,80.25
2018-11-27T14:39:29.938Z,80.34
2018-11-27T14:40:29.938Z,80.15
2018-11-27T14:42:23.109Z,80.44
2018-11-27T14:43:23.092Z,80.25
2018-11-27T14:45:16.246Z,80.63
2018-11-27T14:46:16.252Z,80.72
2018-11-27T14:48:25.789Z,81.38
2018-11-27T14:49:25.756Z,81.10
2018-11-27T14:51:18.889Z,81.29
2018-11-27T14:52:18.887Z,81.92
2018-11-27T14:54:12.039Z,82.20
2018-11-27T14:55:12.043Z,81.86
2018-11-27T14:57:05.192Z,82.24
2018-11-27T14:58:05.184Z,82.43
2018-11-27T14:59:58.317Z,82.62
2018-11-27T15:00:58.447Z,82.43
2018-11-27T15:02:51.549Z,82.52
2018-11-27T15:03:51.535Z,82.43
2018-11-27T15:06:01.079Z,81.95
2018-11-27T15:07:01.074Z,82.71
2018-11-27T15:08:54.220Z,82.52
2018-11-27T15:09:54.226Z,82.71
2018-11-27T15:11:47.423Z,83.18
2018-11-27T15:12:47.394Z,82.90
2018-11-27T15:14:40.566Z,83.18
2018-11-27T15:15:40.556Z,82.52
2018-11-27T15:17:33.753Z,82.33
2018-11-27T15:18:33.716Z,82.43
2018-11-27T15:20:26.882Z,82.43
2018-11-27T15:21:26.869Z,82.24
2018-11-27T15:23:20.032Z,82.62
2018-11-27T15:24:20.079Z,82.62
2018-11-27T15:26:13.195Z,82.81
2018-11-27T15:27:13.203Z,82.81
2018-11-27T15:29:06.387Z,82.33
2018-11-27T15:30:06.355Z,82.24
2018-11-27T15:31:59.873Z,82.62
2018-11-27T15:32:59.518Z,82.43
2018-11-27T15:34:52.692Z,82.14
2018-11-27T15:35:52.678Z,82.43
2018-11-27T15:37:45.865Z,82.43
2018-11-27T15:38:45.879Z,82.52
2018-11-27T15:40:39.086Z,82.33
2018-11-27T15:41:39.047Z,82.05
2018-11-27T15:43:46.500Z,82.33
2018-11-27T15:44:46.498Z,82.24
2018-11-27T15:46:39.659Z,82.62
2018-11-27T15:47:39.659Z,82.62
2018-11-27T15:49:32.811Z,82.43
2018-11-27T15:50:32.847Z,82.33
2018-11-27T15:52:25.984Z,82.24
2018-11-27T15:53:26.008Z,82.43
2018-11-27T15:55:19.156Z,82.24
2018-11-27T15:56:19.152Z,82.24
2018-11-27T15:58:12.328Z,82.52
2018-11-27T15:59:12.321Z,82.52
2018-11-27T16:01:05.475Z,82.33
2018-11-27T16:02:05.467Z,81.76
2018-11-27T16:03:58.607Z,81.86
2018-11-27T16:04:58.623Z,81.76
2018-11-27T16:07:06.129Z,81.29
2018-11-27T16:08:06.131Z,81.57
2018-11-27T16:09:59.276Z,82.14
2018-11-27T16:10:59.295Z,82.62
2018-11-27T16:12:52.455Z,82.62
2018-11-27T16:13:55.288Z,82.43
2018-11-27T16:15:45.615Z,82.62
2018-11-27T16:16:45.594Z,83.00
2018-11-27T16:18:37.751Z,82.52
2018-11-27T16:19:37.771Z,82.14
2018-11-27T16:21:30.912Z,82.43
2018-11-27T16:22:30.929Z,82.52
2018-11-27T16:24:24.044Z,82.24
2018-11-27T16:25:24.053Z,82.81
2018-11-27T16:27:17.215Z,82.62
2018-11-27T16:28:17.216Z,82.62
2018-11-27T16:30:10.342Z,82.52
2018-11-27T16:31:10.371Z,82.71
2018-11-27T16:33:03.511Z,82.81
2018-11-27T16:34:03.498Z,82.52
2018-11-27T16:39:50.195Z,83.09
2018-11-27T16:40:50.197Z,83.09
2018-11-27T16:42:43.394Z,83.09
2018-11-27T16:43:43.408Z,83.18
2018-11-27T16:45:36.552Z,83.18
2018-11-27T16:46:36.562Z,83.66
2018-11-27T16:48:29.725Z,83.47
2018-11-27T16:49:29.726Z,83.56
2018-11-27T16:51:22.884Z,83.85
2018-11-27T16:52:22.889Z,83.47
2018-11-27T16:54:16.039Z,83.37
2018-11-27T16:55:16.044Z,83.66
2018-11-27T16:57:09.211Z,83.56
2018-11-27T16:58:09.201Z,83.85
2018-11-27T17:00:02.391Z,83.75
2018-11-27T17:01:02.393Z,84.13
2018-11-27T17:02:55.574Z,84.04
2018-11-27T17:03:55.585Z,84.61
2018-11-27T17:05:48.737Z,84.89
2018-11-27T17:06:48.738Z,84.61
2018-11-27T17:08:41.914Z,84.99
2018-11-27T17:09:41.900Z,85.74
2018-11-27T17:11:35.056Z,85.65
2018-11-27T17:12:35.059Z,85.93
2018-11-27T17:14:28.188Z,85.74
2018-11-27T17:15:28.177Z,85.74
2018-11-27T17:17:21.376Z,85.65
2018-11-27T17:18:21.377Z,85.74
2018-11-27T17:20:14.539Z,85.74
2018-11-27T17:21:14.531Z,85.65
2018-11-27T17:23:07.701Z,85.65
2018-11-27T17:24:07.687Z,85.84
2018-11-27T17:26:16.233Z,85.74
2018-11-27T17:27:16.237Z,85.84
2018-11-27T17:29:09.395Z,86.03
2018-11-27T17:30:09.395Z,86.12
2018-11-27T17:32:02.591Z,86.31
2018-11-27T17:33:02.594Z,86.22
2018-11-27T17:34:55.754Z,86.50
2018-11-27T17:35:55.755Z,86.41
2018-11-27T17:37:48.916Z,86.22
2018-11-27T17:38:48.914Z,86.50
2018-11-27T17:40:42.040Z,86.03
2018-11-27T17:41:42.073Z,86.22
2018-11-27T17:43:35.396Z,86.22
2018-11-27T17:44:35.392Z,86.12
2018-11-27T17:46:28.554Z,86.41
2018-11-27T17:47:28.563Z,85.84
2018-11-27T17:49:21.720Z,85.65
2018-11-27T17:50:21.721Z,85.65
2018-11-27T17:52:14.862Z,85.65
2018-11-27T17:53:14.857Z,85.74
2018-11-27T17:55:08.019Z,85.74
2018-11-27T17:56:08.018Z,85.74
2018-11-27T17:58:01.196Z,84.99
2018-11-27T17:59:01.175Z,85.08
2018-11-27T18:00:54.400Z,85.46
2018-11-27T18:01:54.377Z,85.27
2018-11-27T18:04:04.864Z,85.08
2018-11-27T18:05:04.876Z,85.17
2018-11-27T18:06:58.025Z,84.89
2018-11-27T18:07:58.009Z,85.55
2018-11-27T18:09:51.182Z,85.46
2018-11-27T18:10:51.205Z,85.46
2018-11-27T18:12:44.381Z,85.74
2018-11-27T18:13:44.368Z,85.84
2018-11-27T18:15:37.548Z,85.65
2018-11-27T18:16:37.621Z,85.65
2018-11-27T18:18:30.754Z,85.84
2018-11-27T18:19:30.707Z,85.74
2018-11-27T18:21:23.942Z,85.08
2018-11-27T18:22:23.949Z,85.93
2018-11-27T18:24:17.125Z,85.65
2018-11-27T18:25:17.120Z,85.65
2018-11-27T18:27:10.251Z,85.65
2018-11-27T18:28:10.265Z,85.84
2018-11-27T18:30:15.100Z,86.41
2018-11-27T18:31:15.101Z,86.31
2018-11-27T18:33:08.253Z,85.93
2018-11-27T18:34:08.256Z,86.03
2018-11-27T18:36:01.410Z,86.03
2018-11-27T18:37:01.423Z,85.74
2018-11-27T18:39:11.890Z,85.93
2018-11-27T18:40:11.890Z,85.74
2018-11-27T18:42:05.043Z,85.74
2018-11-27T18:43:05.074Z,85.93
2018-11-27T18:44:58.252Z,85.74